Terminal Aerodrome Forecast
Issued by NWS

Home | Current Version | Previous Version | Text Only | Print | Product List | Glossary On
Versions: 1 2 3 4 5 6 7 8 9 10 11 12 13 14 15 16 17 18 19 20 21 22 23 24 25 26 27 28 29
000
FTUS43 KDDC 251720
TAFGCK
TAF
KGCK 251720Z 2518/2618 10012KT P6SM SCT018 OVC027
     FM251900 10009G15KT P6SM SCT060
     FM260000 10006KT P6SM SKC
     FM260900 11004KT P6SM VCFG SKC
     FM261500 15009KT P6SM SCT060=

USA.gov is the U.S. government's official web portal to all federal, state and local government web resources and services.